Time;durP1;ratioP1;P1;durP2;ratioP2;P2;SDS_P1;SDS_P2;PMS_P1;PMS_P2;Temp;Humidity;BMP_temperature;BMP_pressure;BME280_temperature;BME280_humidity;BME280_pressure;Samples;Min_cycle;Max_cycle;Signal;HPM_P1;HPM_P2
2023/12/06 00:00:12;;;;;;;23.70;11.13;;;;;;;-7.71;65.02;100900.25;5032587;28;20029;-62
2023/12/06 00:02:38;;;;;;;24.83;11.02;;;;;;;-7.79;64.89;100894.94;5045922;28;20514;-62
2023/12/06 00:05:04;;;;;;;29.08;11.52;;;;;;;-7.80;65.30;100885.41;5051569;28;20045;-62
2023/12/06 00:07:30;;;;;;;26.15;11.05;;;;;;;-7.97;65.26;100851.41;5045796;28;20034;-62
2023/12/06 00:09:58;;;;;;;26.17;11.45;;;;;;;-7.74;65.28;100900.22;5032313;28;20040;-63
2023/12/06 00:12:23;;;;;;;26.25;10.93;;;;;;;-7.80;65.46;100895.78;5046864;28;20107;-62
2023/12/06 00:14:49;;;;;;;25.50;11.35;;;;;;;-7.71;65.40;100897.63;5051980;28;20035;-62
2023/12/06 00:17:15;;;;;;;26.13;11.23;;;;;;;-7.69;65.79;100894.22;5038852;28;20069;-61
2023/12/06 00:19:40;;;;;;;24.40;11.50;;;;;;;-7.73;65.63;100891.53;5032626;28;20033;-63
2023/12/06 00:22:06;;;;;;;27.75;12.48;;;;;;;-7.65;65.17;100902.91;5032169;28;20025;-62
2023/12/06 00:24:31;;;;;;;23.58;11.32;;;;;;;-7.64;65.24;100904.66;5032053;28;20432;-60
2023/12/06 00:26:57;;;;;;;32.90;12.00;;;;;;;-7.67;65.40;100900.31;5036664;28;20116;-58
2023/12/06 00:29:22;;;;;;;24.02;11.40;;;;;;;-7.79;65.40;100892.34;5052170;28;20025;-61
2023/12/06 00:31:48;;;;;;;25.73;11.77;;;;;;;-7.78;65.68;100907.09;5044479;28;20103;-58
2023/12/06 00:34:14;;;;;;;24.25;10.70;;;;;;;-8.19;65.18;100834.69;5037415;28;20147;-61
2023/12/06 00:36:39;;;;;;;25.77;11.77;;;;;;;-7.87;65.54;100917.38;5050310;28;20452;-61
2023/12/06 00:39:05;;;;;;;22.50;10.70;;;;;;;-7.91;65.47;100918.19;5037193;28;20049;-60
2023/12/06 00:41:31;;;;;;;25.50;10.55;;;;;;;-7.94;65.56;100913.81;5035936;28;20029;-61
2023/12/06 00:43:56;;;;;;;31.85;12.10;;;;;;;-8.00;65.63;100908.56;5035962;28;20053;-60
2023/12/06 00:46:24;;;;;;;27.25;11.18;;;;;;;-8.00;65.55;100914.59;5045417;28;20021;-60
2023/12/06 00:48:50;;;;;;;28.02;11.85;;;;;;;-8.01;65.49;100923.25;5055949;28;20033;-59
2023/12/06 00:51:16;;;;;;;25.15;10.93;;;;;;;-8.03;65.98;100927.56;5055492;28;20033;-62
2023/12/06 00:53:41;;;;;;;24.55;10.98;;;;;;;-8.06;65.91;100924.94;5056364;28;20345;-61
2023/12/06 00:56:13;;;;;;;27.40;12.20;;;;;;;-8.08;66.21;100929.25;5054234;28;20028;-59
2023/12/06 00:58:41;;;;;;;28.33;11.85;;;;;;;-8.11;66.40;100922.25;5055770;28;20663;-56
2023/12/06 01:01:06;;;;;;;25.52;11.60;;;;;;;-8.19;66.07;100904.84;5045319;28;20716;-58
2023/12/06 01:03:32;;;;;;;25.88;11.13;;;;;;;-8.12;66.44;100925.72;5036738;28;20037;-61
2023/12/06 01:05:58;;;;;;;25.90;11.63;;;;;;;-8.10;66.03;100934.41;5050524;28;20397;-60
2023/12/06 01:08:24;;;;;;;25.25;10.98;;;;;;;-8.15;66.33;100935.22;5036833;28;20460;-58
2023/12/06 01:10:50;;;;;;;26.05;10.82;;;;;;;-8.22;66.38;100929.03;5035462;28;20029;-57
2023/12/06 01:13:16;;;;;;;23.48;10.77;;;;;;;-8.38;66.34;100918.41;5044470;28;20062;-58
2023/12/06 01:15:41;;;;;;;26.95;11.75;;;;;;;-8.36;66.05;100923.66;5046913;28;20030;-55
2023/12/06 01:18:07;;;;;;;27.63;11.90;;;;;;;-8.41;66.30;100927.91;5039831;28;20036;-58
2023/12/06 01:20:33;;;;;;;25.05;10.55;;;;;;;-8.46;66.53;100925.22;5049004;28;20025;-60
2023/12/06 01:22:59;;;;;;;23.17;10.52;;;;;;;-8.52;66.59;100918.25;5055089;28;20029;-58
2023/12/06 01:25:24;;;;;;;26.95;10.77;;;;;;;-8.58;66.66;100907.78;5055756;28;20040;-59
2023/12/06 01:27:50;;;;;;;25.63;10.57;;;;;;;-8.62;66.64;100923.28;5055537;28;20025;-55
2023/12/06 01:30:16;;;;;;;25.38;11.07;;;;;;;-8.67;66.70;100920.63;5048463;28;20044;-57
2023/12/06 01:32:41;;;;;;;28.45;10.98;;;;;;;-8.97;66.97;100877.72;5035276;28;20263;-60
2023/12/06 01:35:07;;;;;;;22.70;10.27;;;;;;;-8.73;67.78;100924.00;5035398;28;20029;-53
2023/12/06 01:37:33;;;;;;;28.13;11.60;;;;;;;-8.71;67.59;100918.81;5035173;28;20037;-61
2023/12/06 01:39:59;;;;;;;24.42;10.82;;;;;;;-8.66;67.41;100917.19;5036254;28;20026;-58
2023/12/06 01:42:24;;;;;;;24.38;10.43;;;;;;;-8.57;67.88;100925.09;5034943;28;20110;-56
2023/12/06 01:44:50;;;;;;;27.50;10.85;;;;;;;-8.45;67.81;100932.19;5039432;28;20080;-60
2023/12/06 01:47:20;;;;;;;24.48;11.25;;;;;;;-8.41;67.89;100901.94;5055251;28;20038;-57
2023/12/06 01:49:46;;;;;;;28.85;11.38;;;;;;;-8.30;67.80;100908.16;5053000;28;20037;-60
2023/12/06 01:52:12;;;;;;;28.95;11.43;;;;;;;-8.09;67.11;100924.88;5035616;28;20030;-59
2023/12/06 01:54:37;;;;;;;26.65;12.30;;;;;;;-8.04;67.45;100914.56;5034691;28;20352;-61
2023/12/06 01:57:03;;;;;;;27.60;12.23;;;;;;;-7.96;67.33;100912.94;5034284;28;20025;-57
2023/12/06 01:59:29;;;;;;;27.42;12.15;;;;;;;-7.83;67.02;100926.97;5041022;28;20036;-59
2023/12/06 02:01:55;;;;;;;28.63;11.82;;;;;;;-7.71;66.80;100926.25;5047232;28;20108;-53
2023/12/06 02:04:20;;;;;;;25.17;11.07;;;;;;;-7.62;66.57;100928.09;5034785;28;20029;-61
2023/12/06 02:06:46;;;;;;;24.35;11.65;;;;;;;-7.53;66.47;100928.19;5048122;28;20041;-56
2023/12/06 02:09:12;;;;;;;25.40;11.65;;;;;;;-7.52;66.06;100915.22;5037039;28;20057;-60
2023/12/06 02:11:38;;;;;;;27.40;12.25;;;;;;;-7.38;65.83;100923.16;5033413;28;20405;-59
2023/12/06 02:14:04;;;;;;;34.55;12.27;;;;;;;-7.29;65.83;100930.19;5039445;28;20101;-59
2023/12/06 02:16:30;;;;;;;27.23;11.98;;;;;;;-7.20;65.66;100932.03;5054438;28;20372;-58
2023/12/06 02:18:56;;;;;;;25.63;11.80;;;;;;;-7.12;65.40;100945.09;5051554;28;20025;-62
2023/12/06 02:21:22;;;;;;;25.17;12.05;;;;;;;-7.08;64.92;100936.47;5033994;28;20120;-61
2023/12/06 02:23:50;;;;;;;25.52;11.48;;;;;;;-7.13;64.70;100927.72;5034877;28;20033;-61
2023/12/06 02:26:16;;;;;;;26.35;11.95;;;;;;;-7.06;64.57;100938.22;5034257;28;20436;-63
2023/12/06 02:28:42;;;;;;;26.85;12.10;;;;;;;-7.06;64.64;100935.63;5038884;28;20035;-59
2023/12/06 02:31:07;;;;;;;25.70;11.65;;;;;;;-7.04;64.56;100935.66;5054042;28;20044;-56
2023/12/06 02:33:35;;;;;;;27.05;11.73;;;;;;;-7.02;64.42;100938.25;5054155;28;20052;-58
2023/12/06 02:36:02;;;;;;;25.10;11.40;;;;;;;-7.01;64.64;100940.00;5053643;28;20038;-61
2023/12/06 02:38:31;;;;;;;28.13;11.18;;;;;;;-7.01;64.37;100935.69;5051443;28;20402;-58
2023/12/06 02:41:00;;;;;;;27.10;11.63;;;;;;;-6.96;63.84;100935.72;5033979;28;20069;-58
2023/12/06 02:43:26;;;;;;;23.05;10.70;;;;;;;-6.96;64.02;100946.16;5038735;28;20094;-58
2023/12/06 02:45:52;;;;;;;25.92;12.07;;;;;;;-6.96;64.10;100952.19;5053918;28;20451;-61
2023/12/06 02:48:18;;;;;;;26.38;11.35;;;;;;;-6.98;63.95;100940.91;5052043;28;20052;-60
2023/12/06 02:50:43;;;;;;;22.83;11.00;;;;;;;-6.96;63.88;100948.75;5035710;28;20260;-59
2023/12/06 02:53:09;;;;;;;28.85;11.27;;;;;;;-6.94;63.59;100947.03;5043149;28;20108;-61
2023/12/06 02:55:35;;;;;;;21.90;10.70;;;;;;;-6.93;63.59;100943.56;5053254;28;20048;-58
2023/12/06 02:58:00;;;;;;;24.42;11.15;;;;;;;-6.93;63.90;100943.56;5048813;28;20118;-59
2023/12/06 03:00:26;;;;;;;24.02;10.93;;;;;;;-6.93;63.46;100944.41;5033714;28;20033;-59
2023/12/06 03:02:51;;;;;;;27.00;11.68;;;;;;;-6.92;63.55;100958.31;5033961;28;20025;-59
2023/12/06 03:05:19;;;;;;;25.00;11.80;;;;;;;-6.98;63.45;100940.06;5033215;28;20087;-58
2023/12/06 03:07:45;;;;;;;24.10;11.13;;;;;;;-6.95;63.44;100951.34;5033298;28;20445;-59
2023/12/06 03:10:10;;;;;;;29.38;12.70;;;;;;;-6.93;63.50;100951.38;5036804;28;20055;-59
2023/12/06 03:12:36;;;;;;;24.33;11.07;;;;;;;-6.90;63.52;100955.72;5035605;28;20021;-58
2023/12/06 03:15:01;;;;;;;26.65;11.80;;;;;;;-6.89;63.57;100960.97;5052824;28;20118;-59
2023/12/06 03:17:30;;;;;;;27.42;11.95;;;;;;;-6.84;63.58;100964.47;5038313;28;20025;-60
2023/12/06 03:19:55;;;;;;;23.40;10.25;;;;;;;-6.80;63.67;100966.25;5048435;28;20033;-58
2023/12/06 03:22:21;;;;;;;23.55;10.85;;;;;;;-6.77;63.56;100966.25;5053731;28;20032;-61
2023/12/06 03:24:47;;;;;;;25.23;12.45;;;;;;;-6.75;63.51;100974.09;5053093;28;20029;-59
2023/12/06 03:27:14;;;;;;;25.70;12.13;;;;;;;-6.73;63.69;100968.91;5051217;28;20032;-59
2023/12/06 03:29:40;;;;;;;27.02;11.57;;;;;;;-6.69;63.23;100978.50;5041530;28;20040;-60
2023/12/06 03:32:06;;;;;;;23.92;11.30;;;;;;;-6.74;63.33;100964.56;5052857;28;20037;-55
2023/12/06 03:34:32;;;;;;;26.90;11.90;;;;;;;-6.68;63.37;100983.72;5052829;28;20037;-58
2023/12/06 03:36:58;;;;;;;25.00;11.55;;;;;;;-6.65;62.88;100990.69;5052739;28;20086;-60
2023/12/06 03:39:24;;;;;;;26.35;11.02;;;;;;;-6.66;63.44;100991.56;5038561;28;20025;-60
2023/12/06 03:41:50;;;;;;;28.40;12.38;;;;;;;-6.63;63.19;100989.84;5033442;28;20044;-58
2023/12/06 03:44:15;;;;;;;26.15;11.73;;;;;;;-6.62;63.32;100993.31;5051490;28;20043;-60
2023/12/06 03:46:41;;;;;;;30.60;12.30;;;;;;;-6.59;63.02;100998.56;5052312;28;20033;-57
2023/12/06 03:49:06;;;;;;;29.95;11.55;;;;;;;-6.61;62.78;100997.66;5041564;28;20474;-55
2023/12/06 03:51:32;;;;;;;25.60;10.77;;;;;;;-6.58;62.92;101002.91;5032334;28;20333;-60
2023/12/06 03:53:57;;;;;;;24.25;11.35;;;;;;;-6.68;62.72;100985.47;5032134;28;20041;-59
2023/12/06 03:56:24;;;;;;;25.48;11.55;;;;;;;-6.56;63.04;101009.00;5033901;28;20099;-60
2023/12/06 03:58:49;;;;;;;26.48;11.35;;;;;;;-6.56;62.74;101014.22;5049526;28;20036;-60
2023/12/06 04:01:15;;;;;;;25.88;11.50;;;;;;;-6.55;62.97;101012.50;5050873;28;20025;-59
2023/12/06 04:03:41;;;;;;;22.88;11.23;;;;;;;-6.54;63.11;101009.88;5036029;28;20040;-58
2023/12/06 04:06:07;;;;;;;23.52;11.30;;;;;;;-6.54;62.98;101015.09;5032026;28;20071;-60
2023/12/06 04:08:32;;;;;;;28.45;11.65;;;;;;;-6.54;62.75;101016.84;5041414;28;20064;-60
2023/12/06 04:10:58;;;;;;;28.95;11.95;;;;;;;-6.54;62.93;101017.69;5051005;28;20032;-58
2023/12/06 04:13:23;;;;;;;25.05;12.02;;;;;;;-6.55;63.03;101017.69;5035994;28;20098;-60
2023/12/06 04:15:49;;;;;;;28.58;12.80;;;;;;;-6.62;63.16;101016.75;5032264;28;20025;-57
2023/12/06 04:18:15;;;;;;;26.20;11.73;;;;;;;-6.60;62.62;101017.66;5036104;28;20131;-61
2023/12/06 04:20:40;;;;;;;27.90;11.80;;;;;;;-6.71;62.72;101032.31;5032448;28;20029;-60
2023/12/06 04:23:06;;;;;;;25.90;11.45;;;;;;;-6.81;63.22;101016.56;5032091;28;20029;-61
2023/12/06 04:25:31;;;;;;;25.58;11.93;;;;;;;-6.80;62.96;101028.75;5032168;28;20053;-61
2023/12/06 04:27:57;;;;;;;26.73;11.88;;;;;;;-6.99;63.00;101001.66;5042956;28;20049;-55
2023/12/06 04:30:22;;;;;;;26.92;13.18;;;;;;;-6.85;63.17;101029.56;5032235;28;20029;-60
2023/12/06 04:32:48;;;;;;;28.48;12.18;;;;;;;-6.81;63.17;101031.34;5031914;28;20133;-60
2023/12/06 04:35:14;;;;;;;25.42;11.30;;;;;;;-6.77;62.87;101039.19;5032106;28;20088;-60
2023/12/06 04:37:40;;;;;;;27.15;11.57;;;;;;;-6.80;62.99;101041.75;5044945;28;20374;-56
2023/12/06 04:40:07;;;;;;;31.33;12.73;;;;;;;-6.87;62.73;101045.16;5051710;28;20025;-62
2023/12/06 04:42:32;;;;;;;30.27;12.48;;;;;;;-6.87;63.02;101052.97;5037185;28;20022;-59
2023/12/06 04:44:58;;;;;;;28.80;12.20;;;;;;;-6.83;63.37;101057.34;5032283;28;20036;-58
2023/12/06 04:47:24;;;;;;;29.08;11.65;;;;;;;-6.83;62.95;101059.09;5039488;28;20033;-62
2023/12/06 04:49:49;;;;;;;28.65;13.02;;;;;;;-6.71;62.74;101063.56;5051761;28;20100;-59
2023/12/06 04:52:15;;;;;;;28.90;13.00;;;;;;;-6.66;62.83;101067.09;5051717;28;20033;-62
2023/12/06 04:54:40;;;;;;;27.92;12.07;;;;;;;-6.67;62.75;101066.19;5051933;28;20444;-59
2023/12/06 04:57:06;;;;;;;25.90;12.48;;;;;;;-6.54;62.82;101069.81;5038849;28;20120;-60
2023/12/06 04:59:31;;;;;;;26.08;11.95;;;;;;;-6.73;62.70;101032.28;5032344;28;20356;-61
2023/12/06 05:01:57;;;;;;;31.30;13.25;;;;;;;-6.45;62.85;101073.38;5031989;28;20034;-61
2023/12/06 05:04:23;;;;;;;27.00;12.63;;;;;;;-6.42;62.38;101083.81;5030919;28;20021;-61
2023/12/06 05:06:49;;;;;;;27.40;12.13;;;;;;;-6.39;62.52;101084.75;5038059;28;20037;-62
2023/12/06 05:09:15;;;;;;;25.88;12.07;;;;;;;-6.37;62.53;101084.75;5051688;28;20124;-62
2023/12/06 05:11:40;;;;;;;25.20;11.88;;;;;;;-6.34;62.73;101079.56;5039713;28;20025;-61
2023/12/06 05:14:06;;;;;;;34.53;14.82;;;;;;;-6.32;62.29;101077.84;5031575;28;20398;-62
2023/12/06 05:16:32;;;;;;;26.67;12.38;;;;;;;-6.30;62.26;101086.53;5037309;28;20029;-60
2023/12/06 05:18:58;;;;;;;25.77;12.30;;;;;;;-6.24;62.60;101091.81;5055439;28;20352;-60
2023/12/06 05:21:24;;;;;;;25.70;11.20;;;;;;;-6.20;62.40;101090.09;5055009;28;20427;-60
2023/12/06 05:23:50;;;;;;;25.15;11.52;;;;;;;-6.18;62.39;101092.72;5054836;28;20036;-62
2023/12/06 05:26:16;;;;;;;26.40;11.90;;;;;;;-6.16;62.29;101098.84;5050781;28;20059;-62
2023/12/06 05:28:41;;;;;;;26.05;12.38;;;;;;;-6.15;62.29;101093.63;5035160;28;20171;-62
2023/12/06 05:31:07;;;;;;;28.10;11.80;;;;;;;-6.10;62.01;101096.28;5034647;28;20067;-60
2023/12/06 05:33:33;;;;;;;24.63;11.07;;;;;;;-6.06;61.98;101100.66;5034568;28;20353;-62
2023/12/06 05:35:58;;;;;;;22.63;11.27;;;;;;;-6.03;62.05;101098.06;5049492;28;20032;-59
2023/12/06 05:38:24;;;;;;;25.88;12.23;;;;;;;-6.02;62.20;101105.06;5055045;28;20085;-59
2023/12/06 05:40:49;;;;;;;29.52;12.10;;;;;;;-6.00;61.58;101095.47;5051956;28;20037;-60
2023/12/06 05:43:15;;;;;;;27.55;12.82;;;;;;;-5.98;62.24;101098.97;5034727;28;20033;-62
2023/12/06 05:45:41;;;;;;;26.95;12.23;;;;;;;-5.97;61.80;101102.44;5038291;28;20057;-61
2023/12/06 05:48:07;;;;;;;30.35;13.25;;;;;;;-5.97;61.72;101103.31;5037167;28;20021;-60
2023/12/06 05:50:34;;;;;;;28.30;12.90;;;;;;;-6.00;61.55;101098.09;5054442;28;20033;-62
2023/12/06 05:53:00;;;;;;;24.65;11.80;;;;;;;-6.02;61.92;101099.84;5055116;28;20033;-56
2023/12/06 05:55:25;;;;;;;27.05;12.48;;;;;;;-6.05;61.87;101102.41;5052600;28;20025;-60
2023/12/06 05:57:51;;;;;;;26.65;11.85;;;;;;;-5.96;62.08;101112.00;5036035;28;20072;-54
2023/12/06 06:00:17;;;;;;;26.17;12.23;;;;;;;-5.95;61.90;101109.41;5043228;28;20090;-53
2023/12/06 06:02:43;;;;;;;28.40;12.75;;;;;;;-6.01;61.97;101091.16;5034295;28;20025;-55
2023/12/06 06:05:12;;;;;;;27.90;12.25;;;;;;;-5.91;61.83;101107.69;5033937;28;20033;-54
2023/12/06 06:07:38;;;;;;;25.92;12.50;;;;;;;-5.93;61.86;101112.03;5034868;28;20040;-57
2023/12/06 06:10:04;;;;;;;29.38;13.98;;;;;;;-5.92;62.05;101106.81;5049528;28;20028;-59
2023/12/06 06:12:30;;;;;;;30.10;12.93;;;;;;;-5.81;61.88;101133.00;5046666;28;20031;-54
2023/12/06 06:14:56;;;;;;;31.08;13.25;;;;;;;-5.78;61.50;101121.72;5034757;28;20034;-60
2023/12/06 06:17:22;;;;;;;29.55;13.30;;;;;;;-5.85;61.72;101109.47;5034334;28;20087;-55
2023/12/06 06:19:48;;;;;;;32.85;13.02;;;;;;;-5.77;61.57;101121.72;5047033;28;20090;-57
2023/12/06 06:22:14;;;;;;;28.10;13.18;;;;;;;-5.71;61.45;101133.06;5052219;28;20280;-61
2023/12/06 06:24:40;;;;;;;30.08;13.27;;;;;;;-5.70;61.44;101126.97;5035198;28;20555;-63
2023/12/06 06:27:05;;;;;;;29.10;13.07;;;;;;;-5.68;61.13;101126.13;5052671;28;20029;-59
2023/12/06 06:29:31;;;;;;;25.63;13.02;;;;;;;-5.68;61.33;101126.13;5053690;28;20056;-60
2023/12/06 06:31:56;;;;;;;33.92;14.13;;;;;;;-5.71;60.76;101120.91;5054075;28;20473;-62
2023/12/06 06:34:22;;;;;;;31.70;14.57;;;;;;;-5.66;60.93;101142.69;5052164;28;20368;-55
2023/12/06 06:36:48;;;;;;;29.70;13.63;;;;;;;-5.67;60.90;101137.44;5034432;28;20357;-61
2023/12/06 06:39:14;;;;;;;31.23;13.77;;;;;;;-5.66;61.27;101128.78;5049761;28;20033;-59
2023/12/06 06:41:40;;;;;;;32.40;13.93;;;;;;;-5.57;61.09;101146.22;5054371;28;20033;-60
2023/12/06 06:44:06;;;;;;;31.08;14.48;;;;;;;-5.51;60.83;101148.88;5052062;28;20025;-63
2023/12/06 06:46:32;;;;;;;29.08;13.57;;;;;;;-5.45;60.58;101151.53;5038519;28;20033;-60
2023/12/06 06:48:57;;;;;;;32.30;14.02;;;;;;;-5.41;60.69;101155.91;5041095;28;20060;-56
2023/12/06 06:51:33;;;;;;;31.67;13.52;;;;;;;-5.40;60.30;101139.38;5053648;28;20043;-63
2023/12/06 06:53:58;;;;;;;28.73;13.27;;;;;;;-5.35;60.15;101152.47;5047546;28;20120;-60
2023/12/06 06:56:24;;;;;;;29.08;14.20;;;;;;;-5.30;60.15;101163.81;5036971;28;20356;-59
2023/12/06 06:58:51;;;;;;;30.33;14.55;;;;;;;-5.40;59.86;101148.97;5033499;28;20092;-62
2023/12/06 07:01:18;;;;;;;30.77;14.88;;;;;;;-5.36;60.40;101162.03;5035588;28;20108;-58
2023/12/06 07:03:43;;;;;;;30.15;13.80;;;;;;;-5.35;60.19;101163.75;5049252;28;20059;-61
2023/12/06 07:06:09;;;;;;;34.45;15.38;;;;;;;-5.33;60.04;101162.03;5033216;28;20479;-60
2023/12/06 07:08:35;;;;;;;28.10;13.55;;;;;;;-5.33;60.57;101164.66;5049036;28;20044;-58
2023/12/06 07:11:01;;;;;;;32.05;14.98;;;;;;;-5.32;59.89;101168.16;5044424;28;20426;-57
2023/12/06 07:13:26;;;;;;;33.50;15.02;;;;;;;-5.35;59.91;101153.31;5033873;28;20041;-55
2023/12/06 07:15:52;;;;;;;35.63;16.77;;;;;;;-5.33;60.32;101167.25;5048909;28;20082;-54
2023/12/06 07:18:18;;;;;;;30.92;15.57;;;;;;;-5.25;59.89;101171.69;5052778;28;20222;-53
2023/12/06 07:20:44;;;;;;;31.70;15.90;;;;;;;-5.36;60.00;101141.13;5053480;28;20037;-62
2023/12/06 07:23:10;;;;;;;34.03;15.88;;;;;;;-5.22;59.53;101179.53;5038132;28;20083;-61
2023/12/06 07:25:35;;;;;;;31.48;15.40;;;;;;;-5.23;59.66;101168.19;5035022;28;20431;-62
2023/12/06 07:28:02;;;;;;;39.83;16.20;;;;;;;-5.26;58.98;101169.94;5033056;28;20033;-63
2023/12/06 07:30:28;;;;;;;36.95;16.13;;;;;;;-5.36;59.53;101175.06;5035352;28;20064;-60
2023/12/06 07:32:53;;;;;;;42.67;16.10;;;;;;;-5.50;58.95;101161.06;5052581;28;20460;-61
2023/12/06 07:35:19;;;;;;;33.55;15.70;;;;;;;-5.74;59.03;101133.03;5052665;28;20325;-59
2023/12/06 07:37:45;;;;;;;35.67;16.30;;;;;;;-5.58;59.32;101173.16;5038621;28;20503;-62
2023/12/06 07:40:11;;;;;;;32.67;14.98;;;;;;;-5.62;59.13;101178.38;5033083;28;20037;-57
2023/12/06 07:42:38;;;;;;;46.67;16.75;;;;;;;-5.71;58.66;101186.13;5051709;28;20024;-62
2023/12/06 07:45:05;;;;;;;43.90;17.40;;;;;;;-5.71;59.24;101186.13;5052037;28;20025;-58
2023/12/06 07:47:31;;;;;;;39.30;15.68;;;;;;;-5.71;59.06;101185.25;5052251;28;20021;-60
2023/12/06 07:49:56;;;;;;;59.53;17.45;;;;;;;-5.72;58.83;101179.16;5040742;28;20060;-58
2023/12/06 07:52:22;;;;;;;31.73;16.25;;;;;;;-5.78;58.82;101197.38;5049572;28;20029;-58
2023/12/06 07:54:48;;;;;;;33.10;16.02;;;;;;;-5.80;58.99;101188.63;5052415;28;20029;-63
2023/12/06 07:57:13;;;;;;;43.00;17.00;;;;;;;-5.80;58.41;101202.56;5052313;28;20029;-61
2023/12/06 07:59:40;;;;;;;45.50;16.90;;;;;;;-5.82;58.36;101198.19;5052181;28;20104;-62
2023/12/06 08:02:06;;;;;;;35.95;16.65;;;;;;;-5.86;58.62;101192.09;5048138;28;20029;-58
2023/12/06 08:04:32;;;;;;;38.75;17.25;;;;;;;-5.85;58.35;101199.06;5050924;28;20059;-56
2023/12/06 08:06:58;;;;;;;40.92;18.50;;;;;;;-5.93;58.54;101206.81;5035812;28;20034;-62
2023/12/06 08:09:26;;;;;;;44.78;22.10;;;;;;;-5.92;58.60;101205.94;5032563;28;20029;-59
2023/12/06 08:11:51;;;;;;;43.42;19.55;;;;;;;-6.11;58.21;101173.63;5041842;28;20061;-59
2023/12/06 08:14:17;;;;;;;42.38;20.58;;;;;;;-5.90;57.88;101203.34;5045202;28;20423;-61
2023/12/06 08:16:42;;;;;;;39.58;19.27;;;;;;;-5.78;57.86;101213.88;5051584;28;20075;-59
2023/12/06 08:19:08;;;;;;;55.22;19.33;;;;;;;-5.72;57.96;101218.31;5052706;28;20025;-58
2023/12/06 08:21:33;;;;;;;37.35;16.65;;;;;;;-5.65;57.99;101216.63;5036156;28;20034;-59
2023/12/06 08:24:00;;;;;;;35.65;17.38;;;;;;;-5.60;57.48;101214.91;5033028;28;20104;-59
2023/12/06 08:26:25;;;;;;;38.97;18.98;;;;;;;-5.57;57.40;101228.00;5049448;28;20502;-61
2023/12/06 08:28:51;;;;;;;44.67;19.92;;;;;;;-5.58;57.62;101207.09;5051554;28;20025;-59
2023/12/06 08:31:16;;;;;;;42.55;19.55;;;;;;;-5.44;57.40;101213.31;5051740;28;20067;-59
2023/12/06 08:33:42;;;;;;;40.10;19.88;;;;;;;-5.35;57.14;101218.59;5050997;28;20045;-55
2023/12/06 08:36:08;;;;;;;35.33;17.45;;;;;;;-5.44;56.25;101205.47;5048342;28;20065;-55
2023/12/06 08:38:34;;;;;;;42.22;17.67;;;;;;;-5.50;56.38;101202.81;5052347;28;20033;-59
2023/12/06 08:40:59;;;;;;;42.28;17.52;;;;;;;-5.40;57.02;101227.25;5051875;28;20298;-59
2023/12/06 08:43:25;;;;;;;37.60;17.17;;;;;;;-5.29;57.17;101219.53;5051071;28;20043;-58
2023/12/06 08:45:51;;;;;;;36.42;16.95;;;;;;;-5.19;57.05;101221.31;5047148;28;20028;-61
2023/12/06 08:48:17;;;;;;;33.63;16.30;;;;;;;-5.14;56.26;101229.19;5047468;28;20368;-58
2023/12/06 08:50:42;;;;;;;32.40;16.13;;;;;;;-5.14;55.93;101222.22;5045623;28;20028;-57
2023/12/06 08:53:08;;;;;;;31.40;15.07;;;;;;;-5.31;56.19;101214.28;5055324;28;20304;-59
2023/12/06 08:55:34;;;;;;;31.98;15.90;;;;;;;-5.28;56.07;101224.72;5054114;28;20104;-60
2023/12/06 08:58:00;;;;;;;32.42;15.68;;;;;;;-5.59;56.49;101164.47;5043390;28;20447;-63
2023/12/06 09:00:25;;;;;;;31.27;16.25;;;;;;;-5.27;56.28;101223.88;5051424;28;20037;-61
2023/12/06 09:02:51;;;;;;;33.65;15.65;;;;;;;-5.22;56.15;101210.84;5053671;28;20021;-60
2023/12/06 09:05:17;;;;;;;37.45;16.70;;;;;;;-5.13;56.20;101216.13;5048944;28;20451;-60
2023/12/06 09:07:43;;;;;;;41.45;20.50;;;;;;;-5.09;55.72;101212.66;5055869;28;20025;-64
2023/12/06 09:10:09;;;;;;;45.35;20.08;;;;;;;-5.14;55.57;101195.25;5055056;28;20114;-59
2023/12/06 09:12:34;;;;;;;36.67;18.55;;;;;;;-5.09;55.69;101201.38;5053752;28;20044;-63
2023/12/06 09:15:00;;;;;;;36.63;18.27;;;;;;;-4.95;56.04;101210.13;5046108;28;20460;-61
2023/12/06 09:17:26;;;;;;;43.45;18.67;;;;;;;-5.08;56.14;101171.78;5049708;28;20375;-58
2023/12/06 09:19:52;;;;;;;52.65;24.80;;;;;;;-4.82;55.30;101210.22;5054256;28;20029;-60
2023/12/06 09:22:20;;;;;;;43.58;20.15;;;;;;;-4.87;55.05;101225.88;5050464;28;20367;-58
2023/12/06 09:24:47;;;;;;;34.97;17.63;;;;;;;-4.91;55.23;101211.03;5043992;28;20355;-61
2023/12/06 09:27:12;;;;;;;34.78;15.70;;;;;;;-4.97;55.25;101221.47;5034946;28;20472;-57
2023/12/06 09:29:39;;;;;;;38.40;18.30;;;;;;;-4.98;54.91;101224.94;5054456;28;20029;-62
2023/12/06 09:32:05;;;;;;;34.92;17.13;;;;;;;-5.02;55.44;101217.94;5049406;28;20053;-60
2023/12/06 09:34:31;;;;;;;39.75;19.35;;;;;;;-4.99;55.36;101226.66;5051147;28;20052;-61
2023/12/06 09:36:57;;;;;;;40.70;18.77;;;;;;;-5.00;55.17;101232.75;5053356;28;20033;-64
2023/12/06 09:39:23;;;;;;;39.65;18.25;;;;;;;-5.05;55.33;101221.41;5041259;28;20033;-61
2023/12/06 09:41:49;;;;;;;44.22;20.17;;;;;;;-5.09;55.64;101217.91;5052166;28;20042;-65
2023/12/06 09:44:16;;;;;;;45.05;21.42;;;;;;;-5.05;55.32;101218.78;5048973;28;20314;-65
2023/12/06 09:46:43;;;;;;;37.75;17.65;;;;;;;-4.98;55.92;101222.31;5054087;28;20035;-64
2023/12/06 09:49:09;;;;;;;37.80;17.85;;;;;;;-5.00;55.81;101211.00;5043155;28;20083;-64
2023/12/06 09:51:35;;;;;;;50.17;22.10;;;;;;;-4.83;56.00;101218.94;5033251;28;20045;-66
2023/12/06 09:54:00;;;;;;;49.03;21.05;;;;;;;-4.76;55.22;101213.75;5034924;28;20462;-64
2023/12/06 09:56:26;;;;;;;54.45;23.33;;;;;;;-4.79;55.13;101211.13;5053034;28;20033;-61
2023/12/06 09:58:52;;;;;;;53.15;21.10;;;;;;;-4.79;55.30;101199.78;5044662;28;20032;-64
2023/12/06 10:01:17;;;;;;;51.10;20.92;;;;;;;-4.76;54.91;101211.13;5041041;28;20040;-64
2023/12/06 10:03:43;;;;;;;42.95;19.33;;;;;;;-4.70;55.42;101220.75;5033662;28;20033;-60
2023/12/06 10:06:09;;;;;;;40.97;19.35;;;;;;;-4.77;54.38;101200.66;5045650;28;20029;-63
2023/12/06 10:08:35;;;;;;;40.25;18.35;;;;;;;-4.70;55.01;101219.88;5038455;28;20140;-61
2023/12/06 10:11:01;;;;;;;38.78;19.02;;;;;;;-4.74;54.75;101218.09;5039776;28;20134;-61
2023/12/06 10:13:38;;;;;;;42.05;19.52;;;;;;;-4.80;54.91;101216.31;5037130;28;20423;-62
2023/12/06 10:16:17;;;;;;;40.78;18.80;;;;;;;-4.90;55.01;101218.00;5037985;28;20776;-57
2023/12/06 10:18:48;;;;;;;44.55;19.40;;;;;;;-4.93;55.13;101221.50;5041657;28;20464;-60
2023/12/06 10:21:17;;;;;;;39.53;19.75;;;;;;;-4.93;55.45;101220.59;5038419;28;20099;-64
2023/12/06 10:23:58;;;;;;;43.03;18.23;;;;;;;-4.85;55.15;101225.88;5050393;28;20124;-60
2023/12/06 10:26:30;;;;;;;36.28;17.33;;;;;;;-4.84;54.80;101225.88;5053761;28;20028;-65
2023/12/06 10:28:56;;;;;;;40.15;17.70;;;;;;;-4.90;55.39;101228.47;5045029;28;20033;-58
2023/12/06 10:31:22;;;;;;;38.15;18.48;;;;;;;-4.97;55.42;101217.09;5040893;28;20099;-58
2023/12/06 10:33:56;;;;;;;36.30;18.15;;;;;;;-4.94;55.12;101227.59;5051974;28;20131;-60
2023/12/06 10:36:25;;;;;;;35.33;17.10;;;;;;;-4.90;55.02;101223.22;5037130;28;20505;-58
2023/12/06 10:38:52;;;;;;;40.83;17.63;;;;;;;-4.95;55.61;101235.41;5035019;28;20033;-55
2023/12/06 10:41:20;;;;;;;38.78;17.17;;;;;;;-4.95;55.27;101230.19;5031849;28;20045;-59
2023/12/06 10:43:47;;;;;;;38.67;18.05;;;;;;;-4.95;55.57;101232.78;5035230;28;20022;-62
2023/12/06 10:46:15;;;;;;;34.17;16.33;;;;;;;-4.88;55.24;101237.19;5031804;28;20140;-58
2023/12/06 10:48:41;;;;;;;33.30;16.63;;;;;;;-4.95;55.07;101225.81;5041451;28;20021;-58
2023/12/06 10:51:09;;;;;;;36.40;17.00;;;;;;;-4.87;55.45;101235.44;5043973;28;20034;-57
2023/12/06 10:53:38;;;;;;;37.47;18.92;;;;;;;-4.86;55.26;101238.06;5036498;28;20026;-55
2023/12/06 10:56:05;;;;;;;44.95;17.65;;;;;;;-5.14;55.55;101192.63;5033690;28;20106;-54
2023/12/06 10:58:32;;;;;;;36.78;17.83;;;;;;;-4.84;55.02;101238.09;5032796;28;20029;-57
2023/12/06 11:00:58;;;;;;;39.55;18.05;;;;;;;-4.80;55.54;101230.28;5033608;28;20033;-56
2023/12/06 11:03:24;;;;;;;39.10;17.63;;;;;;;-4.69;55.16;101239.91;5033674;28;20037;-57